createdAt,value
2018-03-31T00:00:47.377Z,8.40
2018-03-31T00:03:15.653Z,8.30
2018-03-31T00:05:43.965Z,8.40
2018-03-31T00:08:12.287Z,8.40
2018-03-31T00:10:40.608Z,8.40
2018-03-31T00:13:10.604Z,8.20
2018-03-31T00:15:40.198Z,8.30
2018-03-31T00:18:08.655Z,8.30
2018-03-31T00:20:37.999Z,8.60
2018-03-31T00:23:06.284Z,8.50
2018-03-31T00:25:36.109Z,8.50
2018-03-31T00:28:05.219Z,8.30
2018-03-31T00:30:33.538Z,8.40
2018-03-31T00:33:01.832Z,8.40
2018-03-31T00:35:30.152Z,8.40
2018-03-31T00:37:58.458Z,8.40
2018-03-31T00:40:26.756Z,8.20
2018-03-31T00:42:55.098Z,8.30
2018-03-31T00:45:23.370Z,8.40
2018-03-31T00:47:51.655Z,8.50
2018-03-31T00:50:19.952Z,8.40
2018-03-31T00:52:48.243Z,8.30
2018-03-31T00:55:16.565Z,8.50
2018-03-31T00:57:44.834Z,8.40
2018-03-31T01:00:13.180Z,8.50
2018-03-31T01:02:41.460Z,8.30
2018-03-31T01:05:09.727Z,7.90
2018-03-31T01:07:38.051Z,7.70
2018-03-31T01:10:06.340Z,7.80
2018-03-31T01:12:34.641Z,7.90
2018-03-31T01:15:02.958Z,7.90
2018-03-31T01:17:31.237Z,7.90
2018-03-31T01:19:59.536Z,7.70
2018-03-31T01:22:27.831Z,7.90
2018-03-31T01:24:56.103Z,7.90
2018-03-31T01:27:25.167Z,8.00
2018-03-31T01:29:53.422Z,7.90
2018-03-31T01:32:21.715Z,7.90
2018-03-31T01:34:49.994Z,8.00
2018-03-31T01:37:18.290Z,8.10
2018-03-31T01:39:46.587Z,8.00
2018-03-31T01:42:14.891Z,7.80
2018-03-31T01:44:43.183Z,7.80
2018-03-31T01:47:11.500Z,8.10
2018-03-31T01:49:40.539Z,8.20
2018-03-31T01:52:08.838Z,8.10
2018-03-31T01:54:37.123Z,8.20
2018-03-31T01:57:05.431Z,8.00
2018-03-31T01:59:33.715Z,8.10
2018-03-31T02:02:02.045Z,8.20
2018-03-31T02:04:30.373Z,8.30
2018-03-31T02:06:58.624Z,8.40
2018-03-31T02:09:26.927Z,8.40
2018-03-31T02:11:55.198Z,8.40
2018-03-31T02:14:23.540Z,8.10
2018-03-31T02:16:51.812Z,7.80
2018-03-31T02:19:20.083Z,7.70
2018-03-31T02:21:48.405Z,7.90
2018-03-31T02:24:16.662Z,8.00
2018-03-31T02:26:45.752Z,7.90
2018-03-31T02:29:14.796Z,8.10
2018-03-31T02:31:43.063Z,8.10
2018-03-31T02:34:11.365Z,8.10
2018-03-31T02:36:39.645Z,7.90
2018-03-31T02:39:07.950Z,7.90
2018-03-31T02:41:36.231Z,7.90
2018-03-31T02:44:04.551Z,7.90
2018-03-31T02:46:32.851Z,7.70
2018-03-31T02:49:01.124Z,8.00
2018-03-31T02:51:29.443Z,8.00
2018-03-31T02:53:57.730Z,7.90
2018-03-31T02:56:26.042Z,8.00
2018-03-31T02:58:54.328Z,8.20
2018-03-31T03:01:22.600Z,8.10
2018-03-31T03:03:50.907Z,8.10
2018-03-31T03:06:19.943Z,8.20
2018-03-31T03:08:48.257Z,8.10
2018-03-31T03:11:17.304Z,8.10
2018-03-31T03:13:45.619Z,8.00
2018-03-31T03:16:13.883Z,8.00
2018-03-31T03:18:42.174Z,8.10
2018-03-31T03:21:10.457Z,8.10
2018-03-31T03:23:38.980Z,8.10
2018-03-31T03:26:07.279Z,8.10
2018-03-31T03:28:35.551Z,8.10
2018-03-31T03:31:03.865Z,8.10
2018-03-31T03:33:32.136Z,8.10
2018-03-31T03:36:00.434Z,8.10
2018-03-31T03:38:28.707Z,7.90
2018-03-31T03:40:57.015Z,7.90
2018-03-31T03:43:25.271Z,8.00
2018-03-31T03:45:53.583Z,7.90
2018-03-31T03:48:21.884Z,8.00
2018-03-31T03:50:50.182Z,7.90
2018-03-31T03:53:19.244Z,8.00
2018-03-31T03:55:47.554Z,7.90
2018-03-31T03:58:16.599Z,8.30
2018-03-31T04:00:44.920Z,8.00
2018-03-31T04:03:13.973Z,7.90
2018-03-31T04:05:42.286Z,8.10
2018-03-31T04:08:11.375Z,7.80
2018-03-31T04:10:40.475Z,7.80
2018-03-31T04:13:09.531Z,7.80
2018-03-31T04:15:37.806Z,7.80
2018-03-31T04:18:06.125Z,7.80
2018-03-31T04:20:35.168Z,7.90
2018-03-31T04:23:03.491Z,8.00
2018-03-31T04:25:32.537Z,8.10
2018-03-31T04:28:00.811Z,8.00
2018-03-31T04:30:29.108Z,8.20
2018-03-31T04:32:57.379Z,8.00
2018-03-31T04:35:25.690Z,8.20
2018-03-31T04:37:54.722Z,8.10
2018-03-31T04:40:23.076Z,7.90
2018-03-31T04:42:51.369Z,7.80
2018-03-31T04:45:19.631Z,7.80
2018-03-31T04:47:47.944Z,7.80
2018-03-31T04:50:16.231Z,8.00
2018-03-31T04:52:44.572Z,7.90
2018-03-31T04:55:12.893Z,7.70
2018-03-31T04:57:41.193Z,7.70
2018-03-31T05:00:09.480Z,7.80
2018-03-31T05:02:37.798Z,7.80
2018-03-31T05:05:06.094Z,7.70
2018-03-31T05:07:34.390Z,7.70
2018-03-31T05:10:02.659Z,7.60
2018-03-31T05:12:31.727Z,7.70
2018-03-31T05:15:00.007Z,7.60
2018-03-31T05:17:28.315Z,7.70
2018-03-31T05:19:56.603Z,7.80
2018-03-31T05:22:25.015Z,7.90
2018-03-31T05:24:56.463Z,7.70
2018-03-31T05:27:24.776Z,7.50
2018-03-31T05:29:53.075Z,7.50
2018-03-31T05:32:22.136Z,7.50
2018-03-31T05:34:50.413Z,7.60
2018-03-31T05:37:18.706Z,7.70
2018-03-31T05:39:47.056Z,7.70
2018-03-31T05:42:15.375Z,7.60
2018-03-31T05:44:43.686Z,7.70
2018-03-31T05:47:12.975Z,7.60
2018-03-31T05:49:41.294Z,7.60
2018-03-31T05:52:09.525Z,7.80
2018-03-31T05:54:37.845Z,6.90
2018-03-31T05:57:06.180Z,7.70
2018-03-31T05:59:34.475Z,7.80
2018-03-31T06:02:02.792Z,7.60
2018-03-31T06:04:31.060Z,7.40
2018-03-31T06:07:00.147Z,7.80
2018-03-31T06:09:28.893Z,7.60
2018-03-31T06:11:57.175Z,7.40
2018-03-31T06:14:25.513Z,7.80
2018-03-31T06:16:53.782Z,7.80
2018-03-31T06:19:22.046Z,7.70
2018-03-31T06:21:51.240Z,8.00
2018-03-31T06:24:19.508Z,8.00
2018-03-31T06:26:47.775Z,8.00
2018-03-31T06:29:16.107Z,8.30
2018-03-31T06:31:44.461Z,8.40
2018-03-31T06:34:12.770Z,7.80
2018-03-31T06:36:41.063Z,8.00
2018-03-31T06:39:09.358Z,8.00
2018-03-31T06:41:37.622Z,8.20
2018-03-31T06:44:05.968Z,7.80
2018-03-31T06:46:37.367Z,8.10
2018-03-31T06:49:06.577Z,8.30
2018-03-31T06:51:35.655Z,8.40
2018-03-31T06:54:05.931Z,8.20
2018-03-31T06:56:34.229Z,8.40
2018-03-31T06:59:02.543Z,8.40
2018-03-31T07:01:30.844Z,8.50
2018-03-31T07:03:59.267Z,8.50
2018-03-31T07:06:27.534Z,8.30
2018-03-31T07:08:55.822Z,8.50
2018-03-31T07:11:24.140Z,8.40
2018-03-31T07:13:52.417Z,8.50
2018-03-31T07:16:20.756Z,8.70
2018-03-31T07:18:49.022Z,8.60
2018-03-31T07:21:17.335Z,8.60
2018-03-31T07:23:45.612Z,8.70
2018-03-31T07:26:15.612Z,8.40
2018-03-31T07:28:44.670Z,8.40
2018-03-31T07:31:13.010Z,8.50
2018-03-31T07:33:41.309Z,8.80
2018-03-31T07:36:09.665Z,8.90
2018-03-31T07:38:37.935Z,9.00
2018-03-31T07:41:06.258Z,9.00
2018-03-31T07:43:34.547Z,9.30
2018-03-31T07:46:02.860Z,9.60
2018-03-31T07:48:31.922Z,9.10
2018-03-31T07:51:00.191Z,9.30
2018-03-31T07:53:28.474Z,9.50
2018-03-31T07:55:56.792Z,9.40
2018-03-31T07:58:25.077Z,9.40
2018-03-31T08:00:53.395Z,9.20
2018-03-31T08:03:21.668Z,9.60
2018-03-31T08:05:49.979Z,9.70
2018-03-31T08:08:18.251Z,9.40
2018-03-31T08:10:47.328Z,9.80
2018-03-31T08:13:15.623Z,10.20
2018-03-31T08:15:43.948Z,10.50
2018-03-31T08:18:12.266Z,10.60
2018-03-31T08:20:41.332Z,10.30
2018-03-31T08:23:09.635Z,10.20
2018-03-31T08:25:38.670Z,10.30
2018-03-31T08:28:06.988Z,10.00
2018-03-31T08:30:35.319Z,10.00
2018-03-31T08:33:03.612Z,10.10
2018-03-31T08:35:31.934Z,10.10
2018-03-31T08:38:00.267Z,9.60
2018-03-31T08:40:28.543Z,10.00
2018-03-31T08:42:56.828Z,10.00
2018-03-31T08:45:25.346Z,10.20
2018-03-31T08:47:53.693Z,10.00
2018-03-31T08:50:21.966Z,9.80
2018-03-31T08:52:50.296Z,9.90
2018-03-31T08:55:18.619Z,10.00
2018-03-31T08:57:47.647Z,9.90
2018-03-31T09:00:16.075Z,10.00
2018-03-31T09:02:44.383Z,9.90
2018-03-31T09:05:12.764Z,9.90
2018-03-31T09:07:41.063Z,9.90
2018-03-31T09:10:09.378Z,10.10
2018-03-31T09:12:37.810Z,10.30
2018-03-31T09:15:06.866Z,10.30
2018-03-31T09:17:35.196Z,10.40
2018-03-31T09:20:04.094Z,10.20
2018-03-31T09:22:33.460Z,10.10
2018-03-31T09:25:02.085Z,10.30
2018-03-31T09:27:30.377Z,10.00
2018-03-31T09:29:58.705Z,9.90
2018-03-31T09:32:27.091Z,10.10
2018-03-31T09:34:56.151Z,10.30
2018-03-31T09:37:24.482Z,10.50
2018-03-31T09:39:53.744Z,10.60
2018-03-31T09:42:22.176Z,10.50
2018-03-31T09:44:50.577Z,10.50
2018-03-31T09:47:19.681Z,10.40
2018-03-31T09:49:48.039Z,10.90
2018-03-31T09:52:16.333Z,11.00
2018-03-31T09:54:44.614Z,11.40
2018-03-31T09:57:12.929Z,11.30
2018-03-31T09:59:41.379Z,11.10
2018-03-31T10:02:09.655Z,11.10
2018-03-31T10:04:37.955Z,11.00
2018-03-31T10:07:06.253Z,11.30
2018-03-31T10:09:34.606Z,11.00
2018-03-31T10:12:03.701Z,10.90
2018-03-31T10:14:32.742Z,10.60
2018-03-31T10:17:01.104Z,10.80
2018-03-31T10:19:29.407Z,10.90
2018-03-31T10:21:57.707Z,10.80
2018-03-31T10:24:25.988Z,11.20
2018-03-31T10:26:54.300Z,11.50
2018-03-31T10:29:22.580Z,11.30
2018-03-31T10:31:50.895Z,10.90
2018-03-31T10:34:19.207Z,10.90
2018-03-31T10:36:47.492Z,10.90
2018-03-31T10:39:15.767Z,10.90
2018-03-31T10:41:44.182Z,10.70
2018-03-31T10:44:16.304Z,10.70
2018-03-31T10:46:44.789Z,10.90
2018-03-31T10:49:14.625Z,11.60
2018-03-31T10:51:42.934Z,11.30
2018-03-31T10:54:11.441Z,11.50
2018-03-31T10:56:40.515Z,12.60
2018-03-31T10:59:08.793Z,13.30
2018-03-31T11:01:37.107Z,13.00
2018-03-31T11:04:05.473Z,12.60
2018-03-31T11:06:34.553Z,13.40
2018-03-31T11:09:03.607Z,13.20
2018-03-31T11:11:31.929Z,14.60
2018-03-31T11:14:00.199Z,15.30
2018-03-31T11:16:28.525Z,16.00
2018-03-31T11:18:56.794Z,16.00
2018-03-31T11:21:25.112Z,15.70
2018-03-31T11:23:53.492Z,16.50
2018-03-31T11:26:21.797Z,17.40
2018-03-31T11:28:50.894Z,18.50
2018-03-31T11:31:19.964Z,20.10
2018-03-31T11:33:48.235Z,19.40
2018-03-31T11:36:16.547Z,19.10
2018-03-31T11:38:44.824Z,19.70
2018-03-31T11:41:13.178Z,19.00
2018-03-31T11:43:41.442Z,18.00
2018-03-31T11:46:09.716Z,15.70
2018-03-31T11:48:38.039Z,16.30
2018-03-31T11:51:06.323Z,17.80
2018-03-31T11:53:34.619Z,17.50
2018-03-31T11:56:02.936Z,17.30
2018-03-31T11:58:31.248Z,17.80
2018-03-31T12:00:59.543Z,17.20
2018-03-31T12:03:28.165Z,18.20
2018-03-31T12:05:56.440Z,18.30
2018-03-31T12:08:25.039Z,19.00
2018-03-31T12:10:54.419Z,19.30
2018-03-31T12:13:22.704Z,19.00
2018-03-31T12:15:51.033Z,18.30
2018-03-31T12:18:19.435Z,17.90
2018-03-31T12:20:48.524Z,16.80
2018-03-31T12:23:16.882Z,16.40
2018-03-31T12:25:45.178Z,16.00
2018-03-31T12:28:13.467Z,15.30
2018-03-31T12:30:41.779Z,15.20
2018-03-31T12:33:10.095Z,14.90
2018-03-31T12:35:38.376Z,15.90
2018-03-31T12:38:06.687Z,18.10
2018-03-31T12:40:34.988Z,19.10
2018-03-31T12:43:03.324Z,21.70
2018-03-31T12:45:31.605Z,22.30
2018-03-31T12:48:00.017Z,23.00
2018-03-31T12:50:28.608Z,25.10
2018-03-31T12:53:02.008Z,25.60
2018-03-31T12:55:30.388Z,22.90
2018-03-31T12:57:58.945Z,20.30
2018-03-31T13:00:27.223Z,19.30
2018-03-31T13:02:55.639Z,18.50
2018-03-31T13:05:23.908Z,18.90
2018-03-31T13:07:52.188Z,18.40
2018-03-31T13:10:20.504Z,17.70
2018-03-31T13:12:49.383Z,17.80
2018-03-31T13:15:18.664Z,18.20
2018-03-31T13:17:47.928Z,20.00
2018-03-31T13:20:16.254Z,21.80
2018-03-31T13:22:44.561Z,21.00
2018-03-31T13:25:12.960Z,19.20
2018-03-31T13:27:41.231Z,17.90
2018-03-31T13:30:10.379Z,17.40
2018-03-31T13:32:38.701Z,17.70
2018-03-31T13:35:07.083Z,17.00
2018-03-31T13:37:35.322Z,17.10
2018-03-31T13:40:03.635Z,16.10
2018-03-31T13:42:31.913Z,15.30
2018-03-31T13:45:00.500Z,14.80
2018-03-31T13:47:30.388Z,14.30
2018-03-31T13:49:58.894Z,14.00
2018-03-31T13:52:27.156Z,14.30
2018-03-31T13:54:55.529Z,13.80
2018-03-31T13:57:24.432Z,13.60
2018-03-31T13:59:52.717Z,13.80
2018-03-31T14:02:21.023Z,14.00
2018-03-31T14:04:49.308Z,14.10
2018-03-31T14:07:17.675Z,15.20
2018-03-31T14:09:45.907Z,14.20
2018-03-31T14:12:14.184Z,14.60
2018-03-31T14:14:42.515Z,14.10
2018-03-31T14:17:10.790Z,13.90
2018-03-31T14:19:41.299Z,13.80
2018-03-31T14:22:14.491Z,14.80
2018-03-31T14:24:42.815Z,16.50
2018-03-31T14:27:11.135Z,18.20
2018-03-31T14:29:40.240Z,19.10
2018-03-31T14:32:08.925Z,21.00
2018-03-31T14:34:38.198Z,21.30
2018-03-31T14:37:07.467Z,21.90
2018-03-31T14:39:35.822Z,22.20
2018-03-31T14:42:04.508Z,22.80
2018-03-31T14:44:34.216Z,22.70
2018-03-31T14:47:02.812Z,21.60
2018-03-31T14:49:31.888Z,19.90
2018-03-31T14:52:00.706Z,18.60
2018-03-31T14:54:29.176Z,17.50
2018-03-31T14:56:58.695Z,18.70
2018-03-31T14:59:28.141Z,19.60
2018-03-31T15:01:56.571Z,19.90
2018-03-31T15:04:25.325Z,21.60
2018-03-31T15:06:55.831Z,21.40
2018-03-31T15:09:25.176Z,23.00
2018-03-31T15:11:53.531Z,24.10
2018-03-31T15:14:23.791Z,25.30
2018-03-31T15:16:52.487Z,24.30
2018-03-31T15:19:21.465Z,23.40
2018-03-31T15:21:50.205Z,23.30
2018-03-31T15:24:18.652Z,23.80
2018-03-31T15:26:48.044Z,22.50
2018-03-31T15:29:16.404Z,21.20
2018-03-31T15:31:44.750Z,19.50
2018-03-31T15:34:13.616Z,19.70
2018-03-31T15:36:42.046Z,20.40
2018-03-31T15:39:11.142Z,20.50
2018-03-31T15:41:39.550Z,20.00
2018-03-31T15:44:07.990Z,18.40
2018-03-31T15:46:36.420Z,17.90
2018-03-31T15:49:04.691Z,16.90
2018-03-31T15:51:33.003Z,16.50
2018-03-31T15:54:01.340Z,15.90
2018-03-31T15:56:29.622Z,15.70
2018-03-31T15:58:57.930Z,14.60
2018-03-31T16:01:26.251Z,14.40
2018-03-31T16:03:54.556Z,13.50
2018-03-31T16:06:22.838Z,13.50
2018-03-31T16:08:51.227Z,13.30
2018-03-31T16:11:19.527Z,13.20
2018-03-31T16:13:47.856Z,12.80
2018-03-31T16:16:16.135Z,12.80
2018-03-31T16:18:44.456Z,12.40
2018-03-31T16:21:13.506Z,13.50
2018-03-31T16:23:41.839Z,14.10
2018-03-31T16:26:10.882Z,14.60
2018-03-31T16:28:39.323Z,14.70
2018-03-31T16:31:07.605Z,15.40
2018-03-31T16:33:35.878Z,14.90
2018-03-31T16:36:04.216Z,14.80
2018-03-31T16:38:32.503Z,14.40
2018-03-31T16:41:00.822Z,14.20
2018-03-31T16:43:29.095Z,14.10
2018-03-31T16:45:57.379Z,14.20
2018-03-31T16:48:25.816Z,14.20
2018-03-31T16:50:54.890Z,13.70
2018-03-31T16:53:23.328Z,14.00
2018-03-31T16:55:51.763Z,13.80
2018-03-31T16:58:21.260Z,13.40
2018-03-31T17:00:49.644Z,13.40
2018-03-31T17:03:18.628Z,13.70
2018-03-31T17:05:46.941Z,13.40
2018-03-31T17:08:15.418Z,13.60
2018-03-31T17:10:44.301Z,13.80
2018-03-31T17:13:12.579Z,14.00
2018-03-31T17:15:43.317Z,14.00
2018-03-31T17:18:11.863Z,13.70
2018-03-31T17:20:41.012Z,13.70
2018-03-31T17:23:09.300Z,13.40
2018-03-31T17:25:37.647Z,13.20
2018-03-31T17:28:07.238Z,12.70
2018-03-31T17:30:35.865Z,12.20
2018-03-31T17:33:04.259Z,11.90
2018-03-31T17:35:32.730Z,11.60
2018-03-31T17:38:01.100Z,11.30
2018-03-31T17:40:29.542Z,10.90
2018-03-31T17:42:59.216Z,10.70
2018-03-31T17:45:27.858Z,10.40
2018-03-31T17:47:56.166Z,10.20
2018-03-31T17:50:27.612Z,9.60
2018-03-31T17:52:56.003Z,9.40
2018-03-31T17:55:25.282Z,9.00
2018-03-31T17:57:53.742Z,8.60
2018-03-31T18:00:22.031Z,8.40
2018-03-31T18:02:50.377Z,8.30
2018-03-31T18:05:19.641Z,7.80
2018-03-31T18:07:48.032Z,7.80
2018-03-31T18:10:17.554Z,7.70
2018-03-31T18:12:46.066Z,7.70
2018-03-31T18:15:14.607Z,7.80
2018-03-31T18:17:42.868Z,7.60
2018-03-31T18:20:11.455Z,7.60
2018-03-31T18:22:48.772Z,7.30
2018-03-31T18:25:21.153Z,7.20
2018-03-31T18:27:49.492Z,7.10
2018-03-31T18:30:17.812Z,6.90
2018-03-31T18:32:46.111Z,6.80
2018-03-31T18:35:14.470Z,6.90
2018-03-31T18:37:43.098Z,7.00
2018-03-31T18:40:14.304Z,6.70
2018-03-31T18:42:42.623Z,6.90
2018-03-31T18:45:10.909Z,6.70
2018-03-31T18:47:39.172Z,7.00
2018-03-31T18:50:07.867Z,7.10
2018-03-31T18:52:36.146Z,6.90
2018-03-31T18:55:04.408Z,7.00
2018-03-31T18:57:32.768Z,6.80
2018-03-31T19:00:01.075Z,6.90
2018-03-31T19:02:29.383Z,6.90
2018-03-31T19:04:57.687Z,6.90
2018-03-31T19:07:25.965Z,6.80
2018-03-31T19:09:54.264Z,6.70
2018-03-31T19:12:22.527Z,6.70
2018-03-31T19:14:50.815Z,6.70
2018-03-31T19:17:19.079Z,6.40
2018-03-31T19:19:47.397Z,6.10
2018-03-31T19:22:15.960Z,6.30
2018-03-31T19:24:49.793Z,6.30
2018-03-31T19:27:18.068Z,6.30
2018-03-31T19:29:46.359Z,6.10
2018-03-31T19:32:14.740Z,5.80
2018-03-31T19:34:43.044Z,5.90
2018-03-31T19:37:11.447Z,5.80
2018-03-31T19:39:45.360Z,5.60
2018-03-31T19:42:14.403Z,5.30
2018-03-31T19:44:42.696Z,5.20
2018-03-31T19:47:10.970Z,5.20
2018-03-31T19:49:39.231Z,5.20
2018-03-31T19:52:07.546Z,4.90
2018-03-31T19:54:35.843Z,5.10
2018-03-31T19:57:04.887Z,5.30
2018-03-31T19:59:33.185Z,5.10
2018-03-31T20:02:01.451Z,5.00
2018-03-31T20:04:29.795Z,5.10
2018-03-31T20:06:58.040Z,5.10
2018-03-31T20:09:27.146Z,5.30
2018-03-31T20:11:55.425Z,5.30
2018-03-31T20:14:23.704Z,5.10
2018-03-31T20:16:52.013Z,4.80
2018-03-31T20:19:20.299Z,5.00
2018-03-31T20:21:48.718Z,5.10
2018-03-31T20:24:16.996Z,4.90
2018-03-31T20:26:45.384Z,5.00
2018-03-31T20:29:13.707Z,5.10
2018-03-31T20:31:42.253Z,5.10
2018-03-31T20:34:10.548Z,5.20
2018-03-31T20:36:38.846Z,5.10
2018-03-31T20:39:07.261Z,5.00
2018-03-31T20:41:36.548Z,5.00
2018-03-31T20:44:05.579Z,4.90
2018-03-31T20:46:33.838Z,5.00
2018-03-31T20:49:02.162Z,5.00
2018-03-31T20:51:30.423Z,4.90
2018-03-31T20:53:58.709Z,4.70
2018-03-31T20:56:27.047Z,4.60
2018-03-31T20:58:55.280Z,4.80
2018-03-31T21:01:23.591Z,4.60
2018-03-31T21:03:51.868Z,4.50
2018-03-31T21:06:20.202Z,4.60
2018-03-31T21:08:48.458Z,4.50
2018-03-31T21:11:16.735Z,4.60
2018-03-31T21:13:45.027Z,4.40
2018-03-31T21:16:13.295Z,4.50
2018-03-31T21:18:41.624Z,4.50
2018-03-31T21:21:09.902Z,4.50
2018-03-31T21:23:38.208Z,4.50
2018-03-31T21:26:06.486Z,4.40
2018-03-31T21:28:34.950Z,4.50
2018-03-31T21:31:03.217Z,4.50
2018-03-31T21:33:31.512Z,4.50
2018-03-31T21:35:59.831Z,4.40
2018-03-31T21:38:28.103Z,4.40
2018-03-31T21:40:57.136Z,4.40
2018-03-31T21:43:25.426Z,4.40
2018-03-31T21:45:53.688Z,4.10
2018-03-31T21:48:22.003Z,4.50
2018-03-31T21:50:50.270Z,4.60
2018-03-31T21:53:18.540Z,4.60
2018-03-31T21:55:47.242Z,4.40
2018-03-31T21:58:16.020Z,4.60
2018-03-31T22:00:44.279Z,4.60
2018-03-31T22:03:12.831Z,4.60
2018-03-31T22:05:41.096Z,4.50
2018-03-31T22:08:09.676Z,4.90
2018-03-31T22:10:37.948Z,4.90
2018-03-31T22:13:11.671Z,4.80
2018-03-31T22:15:45.595Z,4.90
2018-03-31T22:18:13.893Z,4.80
2018-03-31T22:20:42.163Z,5.00
2018-03-31T22:23:10.454Z,5.10
2018-03-31T22:25:38.722Z,5.00
2018-03-31T22:28:07.337Z,5.10
2018-03-31T22:30:35.608Z,4.90
2018-03-31T22:33:03.919Z,4.90
2018-03-31T22:35:32.194Z,4.90
2018-03-31T22:38:00.495Z,4.90
2018-03-31T22:40:28.767Z,5.00
2018-03-31T22:42:57.073Z,4.90
2018-03-31T22:45:25.345Z,4.90
2018-03-31T22:47:53.651Z,5.00
2018-03-31T22:50:21.921Z,4.90
2018-03-31T22:52:50.179Z,4.90
2018-03-31T22:55:19.238Z,4.80
2018-03-31T22:57:47.532Z,4.60
2018-03-31T23:00:16.583Z,4.70
2018-03-31T23:02:44.880Z,4.60
2018-03-31T23:05:13.151Z,4.80
2018-03-31T23:07:41.449Z,4.80
2018-03-31T23:10:09.754Z,4.80
2018-03-31T23:12:38.006Z,4.90
2018-03-31T23:15:06.314Z,4.90
2018-03-31T23:17:35.646Z,5.00
2018-03-31T23:20:03.953Z,5.00
2018-03-31T23:22:32.593Z,4.40
2018-03-31T23:25:01.081Z,4.60
2018-03-31T23:27:29.338Z,4.20
2018-03-31T23:29:57.639Z,4.50
2018-03-31T23:32:25.919Z,4.90
2018-03-31T23:34:54.520Z,4.80
2018-03-31T23:37:24.198Z,5.00
2018-03-31T23:39:52.777Z,5.00
2018-03-31T23:42:21.490Z,5.20
2018-03-31T23:44:49.871Z,5.00
2018-03-31T23:47:19.590Z,5.20
2018-03-31T23:49:48.527Z,5.20
2018-03-31T23:52:17.135Z,5.30
2018-03-31T23:54:46.435Z,5.50
2018-03-31T23:57:14.748Z,5.50
2018-03-31T23:59:43.897Z,5.50
